Time;durP1;ratioP1;P1;durP2;ratioP2;P2;SDS_P1;SDS_P2;PMS_P1;PMS_P2;Temp;Humidity;BMP_temperature;BMP_pressure;BME280_temperature;BME280_humidity;BME280_pressure;Samples;Min_cycle;Max_cycle;Signal;HPM_P1;HPM_P2
2023/04/04 00:00:30;;;;;;;4.03;1.13;;;0.80;79.40;;;;;;5034518;28;20029;-74
2023/04/04 00:02:55;;;;;;;1.00;0.82;;;0.90;79.30;;;;;;5038270;28;20087;-75
2023/04/04 00:05:21;;;;;;;5.22;1.35;;;0.90;79.20;;;;;;5041798;28;20289;-74
2023/04/04 00:07:47;;;;;;;2.38;1.27;;;0.80;79.10;;;;;;5036321;28;20022;-74
2023/04/04 00:10:14;;;;;;;4.03;1.52;;;0.80;79.00;;;;;;5034434;28;20033;-74
2023/04/04 00:12:40;;;;;;;2.80;1.58;;;0.80;79.00;;;;;;5035623;28;20140;-74
2023/04/04 00:15:06;;;;;;;1.83;1.00;;;0.80;79.20;;;;;;5034776;28;20022;-75
2023/04/04 00:17:32;;;;;;;2.08;0.98;;;0.80;79.30;;;;;;5035069;28;20075;-75
2023/04/04 00:19:58;;;;;;;3.35;0.60;;;0.90;79.70;;;;;;5034596;28;20421;-75
2023/04/04 00:22:24;;;;;;;1.23;0.75;;;0.90;79.70;;;;;;5032822;28;20030;-75
2023/04/04 00:24:50;;;;;;;1.10;1.00;;;0.90;79.50;;;;;;5038506;28;20084;-75
2023/04/04 00:27:16;;;;;;;5.65;1.65;;;0.90;79.50;;;;;;5037158;28;20030;-75
2023/04/04 00:29:41;;;;;;;1.70;1.05;;;0.80;79.30;;;;;;5037092;28;20128;-77
2023/04/04 00:32:07;;;;;;;5.22;1.45;;;0.80;79.20;;;;;;5038396;28;20044;-75
2023/04/04 00:34:35;;;;;;;3.00;1.10;;;0.70;79.50;;;;;;5037768;28;20482;-74
2023/04/04 00:37:00;;;;;;;2.10;1.23;;;0.70;79.70;;;;;;5035768;28;20109;-74
2023/04/04 00:39:27;;;;;;;2.95;1.15;;;0.70;79.70;;;;;;5034860;28;20497;-75
2023/04/04 00:41:52;;;;;;;3.42;1.25;;;0.70;79.80;;;;;;5037473;28;20136;-75
2023/04/04 00:44:18;;;;;;;2.72;1.20;;;0.70;80.00;;;;;;5037023;28;20140;-75
2023/04/04 00:46:44;;;;;;;3.53;1.38;;;0.70;80.00;;;;;;5037384;28;20467;-75
2023/04/04 00:49:10;;;;;;;3.92;1.20;;;0.60;80.00;;;;;;5037205;28;20474;-75
2023/04/04 00:51:36;;;;;;;2.42;1.10;;;0.60;80.10;;;;;;5037408;28;20056;-74
2023/04/04 00:54:02;;;;;;;1.50;1.23;;;0.50;80.20;;;;;;5036644;28;20462;-74
2023/04/04 00:56:29;;;;;;;2.30;1.40;;;0.50;80.40;;;;;;5037115;28;20390;-74
2023/04/04 00:58:56;;;;;;;3.63;1.20;;;0.50;80.70;;;;;;5038483;28;20414;-74
2023/04/04 01:01:24;;;;;;;3.63;0.93;;;0.40;80.90;;;;;;5035277;28;20124;-74
2023/04/04 01:03:50;;;;;;;4.07;1.77;;;0.40;81.00;;;;;;5036727;28;20026;-74
2023/04/04 01:06:16;;;;;;;4.25;1.90;;;0.30;81.20;;;;;;5036276;28;20025;-75
2023/04/04 01:08:42;;;;;;;3.03;1.33;;;0.30;81.40;;;;;;5036531;28;20395;-74
2023/04/04 01:11:09;;;;;;;2.72;1.30;;;0.20;81.50;;;;;;5036343;28;20466;-74
2023/04/04 01:13:35;;;;;;;3.65;1.30;;;0.20;81.70;;;;;;5035949;28;20080;-74
2023/04/04 01:16:01;;;;;;;2.47;1.08;;;0.20;81.90;;;;;;5036319;28;20027;-75
2023/04/04 01:18:28;;;;;;;3.85;1.38;;;0.20;82.10;;;;;;5037059;28;20041;-75
2023/04/04 01:21:00;;;;;;;6.88;1.42;;;0.10;82.00;;;;;;5034631;28;20255;-74
2023/04/04 01:23:35;;;;;;;3.45;1.45;;;0.10;82.20;;;;;;5036276;28;20026;-74
2023/04/04 01:26:04;;;;;;;2.40;1.40;;;0.00;82.40;;;;;;5036522;28;20029;-75
2023/04/04 01:28:30;;;;;;;3.50;1.50;;;-0.10;82.60;;;;;;5036747;28;20044;-75
2023/04/04 01:30:59;;;;;;;2.10;1.02;;;-0.10;82.80;;;;;;5035638;28;20063;-75
2023/04/04 01:33:28;;;;;;;4.47;1.55;;;-0.10;83.00;;;;;;5036790;28;20017;-75
2023/04/04 01:36:03;;;;;;;3.00;1.30;;;-0.20;83.10;;;;;;5033285;28;20120;-74
2023/04/04 01:38:48;;;;;;;2.53;1.00;;;-0.20;83.20;;;;;;5035335;28;20053;-76
2023/04/04 01:41:15;;;;;;;3.45;1.40;;;-0.30;83.40;;;;;;5036263;28;20069;-75
2023/04/04 01:43:45;;;;;;;7.82;1.48;;;-0.30;83.20;;;;;;5036949;28;20075;-75
2023/04/04 01:46:11;;;;;;;2.67;1.30;;;-0.30;83.10;;;;;;5047720;28;20021;-74
2023/04/04 01:48:37;;;;;;;2.35;1.35;;;-0.40;83.30;;;;;;5039186;28;20045;-75
2023/04/04 01:51:03;;;;;;;4.55;1.45;;;-0.40;83.70;;;;;;5037805;28;20382;-75
2023/04/04 01:53:28;;;;;;;3.90;0.70;;;-0.40;83.90;;;;;;5036022;28;20471;-74
2023/04/04 01:55:54;;;;;;;2.30;1.05;;;-0.40;84.10;;;;;;5035186;28;20025;-74
2023/04/04 01:58:21;;;;;;;3.90;1.40;;;-0.50;84.40;;;;;;5035537;28;20029;-75
2023/04/04 02:00:49;;;;;;;1.98;0.95;;;-0.50;84.70;;;;;;5035152;28;20576;-75
2023/04/04 02:03:15;;;;;;;4.22;1.38;;;-0.50;85.10;;;;;;5034582;28;20041;-75
2023/04/04 02:05:41;;;;;;;4.25;1.27;;;-0.50;85.30;;;;;;5037616;28;20389;-75
2023/04/04 02:08:07;;;;;;;6.28;2.05;;;-0.50;85.70;;;;;;5034982;28;20021;-75
2023/04/04 02:10:32;;;;;;;3.22;1.52;;;-0.50;86.10;;;;;;5034682;28;20427;-76
2023/04/04 02:12:58;;;;;;;4.07;1.40;;;-0.60;86.00;;;;;;5036811;28;20387;-74
2023/04/04 02:15:25;;;;;;;3.60;1.50;;;-0.60;86.50;;;;;;5039890;28;20014;-74
2023/04/04 02:17:51;;;;;;;3.53;1.23;;;-0.60;86.90;;;;;;5038759;28;20025;-74
2023/04/04 02:20:19;;;;;;;2.95;1.00;;;-0.70;87.20;;;;;;5036825;28;20091;-74
2023/04/04 02:22:52;;;;;;;2.10;1.10;;;-0.70;87.40;;;;;;5037831;28;20029;-75
2023/04/04 02:25:19;;;;;;;2.20;1.02;;;-0.70;87.80;;;;;;5037092;28;20033;-74
2023/04/04 02:27:45;;;;;;;7.63;3.08;;;-0.70;87.80;;;;;;5037196;28;20048;-74
2023/04/04 02:30:11;;;;;;;1.45;1.00;;;-0.80;87.80;;;;;;5034813;28;20390;-75
2023/04/04 02:32:38;;;;;;;4.78;1.70;;;;;;;;;;5035353;28;20037;-75
2023/04/04 02:35:04;;;;;;;2.25;1.17;;;-0.80;87.30;;;;;;5034110;28;20017;-75
2023/04/04 02:37:30;;;;;;;4.07;1.45;;;-0.90;87.90;;;;;;5035283;28;20030;-74
2023/04/04 02:39:56;;;;;;;4.70;1.50;;;-0.80;87.90;;;;;;5037697;28;20025;-74
2023/04/04 02:42:21;;;;;;;3.08;1.33;;;-0.80;88.10;;;;;;5035786;28;20056;-75
2023/04/04 02:44:47;;;;;;;2.70;1.15;;;-0.90;88.20;;;;;;5035166;28;20029;-76
2023/04/04 02:47:13;;;;;;;4.03;1.20;;;-0.90;88.30;;;;;;5035293;28;20417;-75
2023/04/04 02:49:38;;;;;;;2.47;1.20;;;-0.90;88.30;;;;;;5037771;28;20085;-74
2023/04/04 02:52:04;;;;;;;2.50;1.33;;;-0.90;88.50;;;;;;5033215;28;20120;-75
2023/04/04 02:54:30;;;;;;;2.42;0.73;;;-0.90;88.80;;;;;;5034731;28;20037;-75
2023/04/04 02:56:56;;;;;;;1.58;0.93;;;-0.90;89.00;;;;;;5034623;28;20037;-75
2023/04/04 02:59:21;;;;;;;0.95;0.77;;;-0.90;89.10;;;;;;5036528;28;20104;-75
2023/04/04 03:01:47;;;;;;;1.70;1.05;;;-0.90;89.30;;;;;;5034417;28;20029;-76
2023/04/04 03:04:13;;;;;;;1.42;0.90;;;-0.90;89.20;;;;;;5034657;28;20049;-75
2023/04/04 03:06:40;;;;;;;1.65;0.70;;;-0.90;89.20;;;;;;5034006;28;20029;-75
2023/04/04 03:09:06;;;;;;;4.25;0.77;;;-1.00;89.20;;;;;;5035111;28;20021;-73
2023/04/04 03:11:32;;;;;;;3.67;1.20;;;-1.00;89.40;;;;;;5035296;28;20053;-73
2023/04/04 03:13:57;;;;;;;1.92;0.90;;;-1.00;89.60;;;;;;5036707;28;20589;-75
2023/04/04 03:16:24;;;;;;;2.35;1.13;;;-1.10;89.70;;;;;;5034028;28;20029;-74
2023/04/04 03:18:50;;;;;;;1.88;1.08;;;-1.00;90.00;;;;;;5035522;28;20018;-74
2023/04/04 03:21:16;;;;;;;3.78;1.33;;;-1.10;90.00;;;;;;5035153;28;20335;-75
2023/04/04 03:23:41;;;;;;;4.47;1.58;;;-1.10;90.00;;;;;;5035812;28;20085;-75
2023/04/04 03:26:08;;;;;;;1.58;0.93;;;-1.10;90.00;;;;;;5034722;28;20053;-75
2023/04/04 03:28:34;;;;;;;2.00;1.25;;;-1.10;90.00;;;;;;5035134;28;20029;-74
2023/04/04 03:31:06;;;;;;;3.13;1.40;;;-1.10;90.10;;;;;;5035295;28;20467;-74
2023/04/04 03:33:36;;;;;;;3.25;0.98;;;-1.20;90.20;;;;;;5034508;28;20064;-74
2023/04/04 03:36:08;;;;;;;2.75;1.20;;;-1.20;90.40;;;;;;5034258;28;20090;-74
2023/04/04 03:38:33;;;;;;;4.35;1.35;;;-1.20;90.50;;;;;;5034739;28;20036;-75
2023/04/04 03:41:03;;;;;;;1.60;0.80;;;-1.20;90.50;;;;;;5036564;28;20406;-75
2023/04/04 03:43:29;;;;;;;1.65;0.90;;;-1.20;90.70;;;;;;5043651;28;20040;-73
2023/04/04 03:46:03;;;;;;;2.67;0.80;;;-1.20;90.70;;;;;;5034225;28;20030;-74
2023/04/04 03:48:29;;;;;;;1.58;0.85;;;-1.20;90.70;;;;;;5014637;28;20046;-73
2023/04/04 03:50:58;;;;;;;2.50;1.00;;;-1.20;90.80;;;;;;5014532;28;20094;-74
2023/04/04 03:53:24;;;;;;;1.17;0.85;;;-1.20;90.90;;;;;;5014635;28;20499;-74
2023/04/04 03:55:51;;;;;;;0.95;0.50;;;-1.30;90.90;;;;;;5026862;28;20033;-74
2023/04/04 03:58:17;;;;;;;1.40;1.00;;;-1.30;91.00;;;;;;5033091;28;20156;-73
2023/04/04 04:00:43;;;;;;;4.03;1.63;;;-1.30;91.10;;;;;;5034455;28;20253;-72
2023/04/04 04:03:08;;;;;;;2.25;1.27;;;-1.30;91.20;;;;;;5038810;28;20031;-74
2023/04/04 04:05:34;;;;;;;5.72;1.77;;;-1.30;91.20;;;;;;5032773;28;20148;-73
2023/04/04 04:07:59;;;;;;;2.83;1.30;;;-1.30;91.30;;;;;;5034671;28;20029;-74
2023/04/04 04:10:25;;;;;;;7.40;1.63;;;-1.30;91.30;;;;;;5033313;28;20021;-74
2023/04/04 04:12:51;;;;;;;4.60;1.20;;;-1.30;91.20;;;;;;5033807;28;20056;-74
2023/04/04 04:15:16;;;;;;;4.85;2.00;;;-1.30;91.30;;;;;;5033037;28;20029;-73
2023/04/04 04:17:42;;;;;;;4.95;1.83;;;-1.30;91.30;;;;;;5035019;28;20026;-74
2023/04/04 04:20:09;;;;;;;3.70;1.73;;;-1.40;91.40;;;;;;5034210;28;20034;-74
2023/04/04 04:22:35;;;;;;;6.15;1.92;;;-1.40;91.50;;;;;;5032520;28;20029;-74
2023/04/04 04:25:00;;;;;;;4.35;1.88;;;-1.40;91.70;;;;;;5033817;28;20107;-74
2023/04/04 04:27:26;;;;;;;4.28;1.52;;;-1.40;91.70;;;;;;5033177;28;20030;-74
2023/04/04 04:29:52;;;;;;;3.38;1.85;;;-1.40;91.90;;;;;;5033625;28;20398;-74
2023/04/04 04:32:18;;;;;;;1.90;1.33;;;-1.40;91.90;;;;;;5033490;28;20026;-75
2023/04/04 04:34:43;;;;;;;2.50;1.23;;;-1.40;92.00;;;;;;5032467;28;20022;-74
2023/04/04 04:37:09;;;;;;;6.80;2.00;;;-1.50;92.10;;;;;;5032994;28;20117;-73
2023/04/04 04:39:35;;;;;;;5.70;1.95;;;-1.50;92.20;;;;;;5032776;28;20029;-74
2023/04/04 04:42:02;;;;;;;2.13;1.42;;;-1.50;92.20;;;;;;5031025;28;20099;-74
2023/04/04 04:44:27;;;;;;;5.85;1.80;;;-1.50;92.40;;;;;;5031329;28;20030;-73
2023/04/04 04:46:53;;;;;;;11.00;2.17;;;-1.50;92.30;;;;;;5033442;28;20351;-74
2023/04/04 04:49:18;;;;;;;3.55;1.88;;;-1.50;92.30;;;;;;5032922;28;20409;-74
2023/04/04 04:51:44;;;;;;;4.40;2.05;;;-1.60;92.40;;;;;;5014242;28;20030;-74
2023/04/04 04:54:10;;;;;;;5.25;2.20;;;-1.60;92.40;;;;;;5021656;28;20060;-73
2023/04/04 04:56:36;;;;;;;3.83;2.03;;;-1.60;92.50;;;;;;5033911;28;20216;-73
2023/04/04 04:59:02;;;;;;;6.82;2.15;;;-1.60;92.60;;;;;;5035142;28;20112;-74
2023/04/04 05:01:28;;;;;;;3.92;1.52;;;-1.60;92.60;;;;;;5032301;28;20077;-74
2023/04/04 05:03:53;;;;;;;5.30;1.70;;;-1.60;92.60;;;;;;5033040;28;20033;-73
2023/04/04 05:06:19;;;;;;;5.07;2.70;;;-1.60;92.70;;;;;;5032902;28;20034;-75
2023/04/04 05:08:45;;;;;;;7.88;1.92;;;-1.60;92.80;;;;;;5035747;28;20029;-74
2023/04/04 05:11:11;;;;;;;1.92;1.40;;;-1.50;92.90;;;;;;5035630;28;20568;-74
2023/04/04 05:13:37;;;;;;;3.00;1.55;;;-1.60;92.90;;;;;;5036700;28;20033;-74
2023/04/04 05:16:03;;;;;;;4.15;1.73;;;-1.60;92.90;;;;;;5037218;28;20045;-74
2023/04/04 05:18:29;;;;;;;8.73;2.28;;;-1.60;92.90;;;;;;5038485;28;20025;-73
2023/04/04 05:20:55;;;;;;;2.70;1.92;;;-1.60;92.90;;;;;;5037581;28;20044;-73
2023/04/04 05:23:21;;;;;;;4.53;2.25;;;-1.50;92.90;;;;;;5035703;28;20028;-73
2023/04/04 05:25:52;;;;;;;3.03;1.52;;;-1.50;92.90;;;;;;5038226;28;20067;-74
2023/04/04 05:28:19;;;;;;;2.85;1.23;;;-1.40;93.00;;;;;;5036427;28;20185;-75
2023/04/04 05:30:44;;;;;;;4.60;1.80;;;-1.40;92.90;;;;;;5040254;28;20025;-74
2023/04/04 05:33:10;;;;;;;4.18;2.10;;;-1.40;92.90;;;;;;5042290;28;20103;-75
2023/04/04 05:35:36;;;;;;;3.88;1.95;;;-1.40;92.60;;;;;;5044899;28;20030;-74
2023/04/04 05:38:02;;;;;;;5.18;1.60;;;-1.30;92.60;;;;;;5056955;28;20036;-74
2023/04/04 05:40:28;;;;;;;6.43;2.75;;;-1.30;92.40;;;;;;5047903;28;20025;-75
2023/04/04 05:42:57;;;;;;;2.38;1.60;;;-1.20;92.30;;;;;;5046208;28;20044;-74
2023/04/04 05:45:24;;;;;;;5.00;1.95;;;-1.20;92.20;;;;;;5038715;28;20044;-74
2023/04/04 05:47:49;;;;;;;2.38;1.30;;;-1.10;92.20;;;;;;5036863;28;20041;-74
2023/04/04 05:50:15;;;;;;;5.18;1.67;;;-1.10;92.10;;;;;;5035439;28;20035;-75
2023/04/04 05:52:41;;;;;;;3.22;1.83;;;-1.00;92.00;;;;;;5036853;28;20075;-74
2023/04/04 05:55:07;;;;;;;3.95;1.45;;;-1.00;91.80;;;;;;5037229;28;20029;-74
2023/04/04 05:57:33;;;;;;;4.03;1.75;;;-0.90;91.70;;;;;;5038052;28;20075;-74
2023/04/04 05:59:58;;;;;;;3.83;1.98;;;-0.90;91.60;;;;;;5039951;28;20025;-74
2023/04/04 06:02:24;;;;;;;3.58;1.98;;;-0.90;91.30;;;;;;5036646;28;20068;-74
2023/04/04 06:04:50;;;;;;;6.60;2.10;;;-0.80;91.10;;;;;;5035916;28;20610;-74
2023/04/04 06:07:16;;;;;;;4.25;1.75;;;-0.80;91.00;;;;;;5035774;28;20037;-73
2023/04/04 06:09:42;;;;;;;4.55;1.90;;;-0.80;91.00;;;;;;5035779;28;20028;-74
2023/04/04 06:12:08;;;;;;;3.80;2.10;;;-0.70;90.90;;;;;;5035591;28;20033;-74
2023/04/04 06:14:35;;;;;;;6.03;2.33;;;-0.70;90.70;;;;;;5036889;28;20035;-74
2023/04/04 06:17:01;;;;;;;3.05;1.80;;;-0.60;90.70;;;;;;5035914;28;20036;-73
2023/04/04 06:19:26;;;;;;;9.30;2.50;;;-0.50;90.50;;;;;;5035616;28;20025;-73
2023/04/04 06:21:52;;;;;;;5.05;1.90;;;-0.50;89.80;;;;;;5036604;28;20442;-73
2023/04/04 06:24:18;;;;;;;3.80;1.98;;;-0.50;89.30;;;;;;5035390;28;20505;-74
2023/04/04 06:26:44;;;;;;;5.85;2.15;;;-0.50;89.20;;;;;;5034659;28;20033;-75
2023/04/04 06:29:10;;;;;;;2.33;1.33;;;-0.40;89.20;;;;;;5034405;28;20061;-75
2023/04/04 06:31:35;;;;;;;3.55;2.13;;;-0.30;89.20;;;;;;5037795;28;20510;-73
2023/04/04 06:34:01;;;;;;;5.13;2.15;;;-0.30;88.80;;;;;;5035564;28;20060;-74
2023/04/04 06:36:27;;;;;;;7.43;2.55;;;-0.20;88.10;;;;;;5035464;28;20026;-74
2023/04/04 06:38:53;;;;;;;9.50;1.98;;;-0.20;87.50;;;;;;5039402;28;20044;-75
2023/04/04 06:41:19;;;;;;;4.85;2.25;;;-0.10;87.60;;;;;;5036114;28;20045;-74
2023/04/04 06:43:45;;;;;;;7.22;2.50;;;0.00;87.30;;;;;;5035972;28;20022;-74
2023/04/04 06:46:11;;;;;;;3.58;1.95;;;0.10;86.00;;;;;;5035995;28;20362;-75
2023/04/04 06:48:37;;;;;;;9.18;2.53;;;0.10;84.60;;;;;;5034290;28;20086;-74
2023/04/04 06:51:07;;;;;;;6.18;2.15;;;0.10;84.60;;;;;;5036429;28;20116;-74
2023/04/04 06:53:33;;;;;;;4.60;2.03;;;0.20;83.40;;;;;;5035135;28;20204;-74
2023/04/04 06:55:59;;;;;;;5.10;2.20;;;0.20;82.90;;;;;;5034567;28;20025;-74
2023/04/04 06:58:25;;;;;;;6.63;2.85;;;0.30;82.90;;;;;;5034371;28;20037;-74
2023/04/04 07:00:51;;;;;;;5.65;1.90;;;0.40;81.50;;;;;;5034666;28;20025;-73
2023/04/04 07:03:16;;;;;;;6.30;2.05;;;0.40;81.50;;;;;;5034788;28;20486;-75
2023/04/04 07:05:42;;;;;;;4.15;2.15;;;0.50;81.50;;;;;;5034621;28;20478;-74
2023/04/04 07:08:08;;;;;;;4.82;2.17;;;0.60;81.20;;;;;;5033691;28;20025;-74
2023/04/04 07:10:34;;;;;;;3.90;2.25;;;0.70;80.30;;;;;;5034969;28;20061;-74
2023/04/04 07:13:00;;;;;;;3.10;1.77;;;0.70;79.70;;;;;;5036746;28;20013;-74
2023/04/04 07:15:26;;;;;;;3.13;1.50;;;0.80;79.80;;;;;;5035166;28;20018;-73
2023/04/04 07:17:53;;;;;;;4.07;2.25;;;0.90;79.20;;;;;;5035430;28;20032;-74
2023/04/04 07:20:18;;;;;;;3.88;2.05;;;1.00;78.30;;;;;;5036119;28;20212;-74
2023/04/04 07:22:44;;;;;;;4.63;2.10;;;1.10;77.70;;;;;;5034878;28;20136;-74
2023/04/04 07:25:12;;;;;;;3.95;1.70;;;1.20;76.90;;;;;;5034686;28;20029;-74
2023/04/04 07:27:39;;;;;;;6.15;2.10;;;1.30;77.30;;;;;;5034423;28;20022;-75
2023/04/04 07:30:07;;;;;;;6.75;2.58;;;1.30;74.90;;;;;;5034580;28;20020;-75
2023/04/04 07:32:33;;;;;;;8.27;2.60;;;1.30;74.40;;;;;;5035493;28;20041;-75
2023/04/04 07:34:59;;;;;;;4.00;1.90;;;1.40;73.90;;;;;;5035337;28;20025;-74
2023/04/04 07:37:25;;;;;;;5.13;2.45;;;1.50;73.80;;;;;;5035776;28;20482;-74
2023/04/04 07:39:51;;;;;;;3.00;2.05;;;1.60;72.70;;;;;;5035967;28;20049;-74
2023/04/04 07:42:21;;;;;;;2.92;1.88;;;1.60;72.10;;;;;;5040037;28;20038;-74
2023/04/04 07:44:48;;;;;;;4.28;2.00;;;1.70;72.40;;;;;;5038806;28;20026;-74
2023/04/04 07:47:15;;;;;;;7.75;2.53;;;1.90;72.50;;;;;;5035077;28;20033;-73
2023/04/04 07:49:41;;;;;;;4.30;1.83;;;2.00;70.80;;;;;;5033586;28;20583;-75
2023/04/04 07:52:07;;;;;;;3.65;2.17;;;2.10;71.00;;;;;;5033966;28;20029;-74
2023/04/04 07:54:35;;;;;;;5.85;2.10;;;2.20;70.60;;;;;;5033826;28;20045;-74
2023/04/04 07:57:04;;;;;;;3.15;1.70;;;2.30;69.80;;;;;;5032924;28;20065;-74
2023/04/04 07:59:30;;;;;;;2.42;1.60;;;2.40;69.40;;;;;;5034196;28;20436;-74
2023/04/04 08:01:56;;;;;;;3.58;2.03;;;2.50;69.20;;;;;;5037711;28;20029;-74
2023/04/04 08:04:22;;;;;;;3.95;2.40;;;2.60;67.70;;;;;;5034206;28;20044;-74
2023/04/04 08:06:47;;;;;;;3.78;1.80;;;2.50;68.00;;;;;;5034034;28;20470;-73
2023/04/04 08:09:13;;;;;;;5.43;1.95;;;2.40;68.20;;;;;;5035732;28;20113;-74
2023/04/04 08:11:39;;;;;;;5.22;2.35;;;2.20;68.60;;;;;;5034723;28;20033;-73
2023/04/04 08:14:04;;;;;;;2.95;1.90;;;2.00;68.60;;;;;;5034302;28;20029;-74
2023/04/04 08:16:30;;;;;;;7.18;2.17;;;1.90;68.90;;;;;;5033747;28;20028;-74
2023/04/04 08:18:56;;;;;;;5.10;2.58;;;1.90;68.50;;;;;;5036984;28;20029;-73
2023/04/04 08:21:22;;;;;;;4.00;1.67;;;1.90;68.50;;;;;;5033654;28;20497;-73
2023/04/04 08:23:47;;;;;;;3.30;1.85;;;1.80;68.70;;;;;;5034363;28;20029;-73
2023/04/04 08:26:13;;;;;;;3.88;1.75;;;1.90;69.00;;;;;;5034256;28;20484;-73
2023/04/04 08:28:39;;;;;;;4.25;1.70;;;1.90;69.10;;;;;;5030703;28;20043;-74
2023/04/04 08:31:04;;;;;;;4.10;1.52;;;2.00;69.20;;;;;;5034888;28;20086;-74
2023/04/04 08:33:30;;;;;;;2.80;1.58;;;2.10;68.50;;;;;;5034182;28;20029;-74
2023/04/04 08:35:57;;;;;;;2.72;1.70;;;2.10;68.20;;;;;;5033969;28;20079;-74
2023/04/04 08:38:22;;;;;;;3.13;1.50;;;2.20;68.20;;;;;;5034277;28;20049;-73
2023/04/04 08:40:48;;;;;;;6.65;2.20;;;2.50;68.00;;;;;;5034507;28;20113;-74
2023/04/04 08:43:18;;;;;;;5.57;2.35;;;2.70;66.50;;;;;;5032847;28;20036;-75
2023/04/04 08:45:45;;;;;;;5.28;2.47;;;3.10;65.40;;;;;;5037903;28;20034;-74
2023/04/04 08:48:14;;;;;;;4.57;2.38;;;3.40;64.00;;;;;;5037390;28;20040;-74
2023/04/04 08:50:41;;;;;;;5.95;2.05;;;3.40;63.00;;;;;;5038177;28;20076;-74
2023/04/04 08:53:09;;;;;;;4.05;2.10;;;3.50;62.50;;;;;;5039858;28;20461;-74
2023/04/04 08:55:36;;;;;;;3.15;1.48;;;3.80;62.80;;;;;;5037027;28;20030;-74
2023/04/04 08:58:02;;;;;;;9.40;2.15;;;4.60;62.70;;;;;;5037001;28;20054;-74
2023/04/04 09:00:28;;;;;;;4.65;1.60;;;5.10;59.50;;;;;;5038324;28;20108;-74
2023/04/04 09:03:03;;;;;;;3.15;1.60;;;4.90;56.90;;;;;;5037599;28;20036;-73
2023/04/04 09:05:29;;;;;;;3.42;1.95;;;4.70;56.90;;;;;;5036277;28;20032;-74
2023/04/04 09:07:56;;;;;;;4.00;1.92;;;4.60;55.10;;;;;;5039051;28;20021;-73
2023/04/04 09:10:22;;;;;;;3.75;1.42;;;4.70;55.90;;;;;;5037850;28;20032;-73
2023/04/04 09:12:50;;;;;;;2.85;1.58;;;5.10;56.20;;;;;;5036395;28;20025;-74
2023/04/04 09:15:16;;;;;;;3.30;1.75;;;5.70;55.80;;;;;;5037067;28;20143;-74
2023/04/04 09:17:42;;;;;;;2.22;1.42;;;5.90;54.20;;;;;;5037730;28;20030;-74
2023/04/04 09:20:40;;;;;;;2.55;1.48;;;5.80;52.90;;;;;;5037295;28;20025;-74
2023/04/04 09:23:08;;;;;;;2.55;1.50;;;5.50;52.50;;;;;;5037667;28;20389;-74
2023/04/04 09:25:35;;;;;;;3.13;1.60;;;5.40;52.40;;;;;;5035193;28;20022;-74
2023/04/04 09:28:03;;;;;;;2.97;1.33;;;5.30;52.50;;;;;;5037983;28;20029;-73
2023/04/04 09:30:30;;;;;;;4.28;1.98;;;5.30;52.60;;;;;;5044499;28;20017;-74
2023/04/04 09:32:56;;;;;;;4.93;1.80;;;5.20;52.40;;;;;;5047642;28;20064;-74
2023/04/04 09:35:28;;;;;;;5.15;1.73;;;5.20;52.40;;;;;;5046673;28;20022;-75
2023/04/04 09:37:54;;;;;;;3.00;1.50;;;5.40;53.00;;;;;;5019758;28;20036;-74
2023/04/04 09:40:22;;;;;;;5.30;2.33;;;5.50;53.10;;;;;;5031668;28;20081;-74
2023/04/04 09:42:49;;;;;;;5.25;2.30;;;5.50;50.70;;;;;;5040585;28;20030;-74
2023/04/04 09:45:16;;;;;;;4.03;2.22;;;5.20;50.90;;;;;;5051326;28;20037;-74
2023/04/04 09:47:42;;;;;;;5.53;2.38;;;4.90;52.10;;;;;;5037275;28;20430;-74
2023/04/04 09:50:08;;;;;;;3.50;1.98;;;4.70;52.10;;;;;;5036427;28;20048;-73
2023/04/04 09:52:36;;;;;;;6.75;1.88;;;4.60;52.30;;;;;;5036140;28;20082;-74
2023/04/04 09:55:04;;;;;;;4.28;2.15;;;5.00;52.50;;;;;;5038108;28;20030;-74
2023/04/04 09:57:38;;;;;;;5.32;1.90;;;5.50;51.90;;;;;;5036510;28;20033;-75
2023/04/04 10:00:08;;;;;;;4.63;1.75;;;6.30;51.90;;;;;;5028763;28;20112;-73
2023/04/04 10:02:36;;;;;;;3.78;2.15;;;6.90;50.50;;;;;;5036897;28;20030;-74
2023/04/04 10:05:09;;;;;;;2.08;1.48;;;7.10;49.20;;;;;;5036477;28;20108;-73
2023/04/04 10:07:38;;;;;;;6.43;1.92;;;7.20;47.40;;;;;;5022391;28;20021;-73
2023/04/04 10:10:05;;;;;;;2.47;1.38;;;7.10;47.20;;;;;;5041117;28;20038;-74
2023/04/04 10:12:31;;;;;;;2.58;1.40;;;7.10;48.50;;;;;;5037472;28;20018;-73
2023/04/04 10:15:01;;;;;;;5.65;2.10;;;7.20;48.10;;;;;;5036790;28;20025;-74
2023/04/04 10:17:35;;;;;;;2.70;1.90;;;7.10;48.10;;;;;;5035890;28;20021;-74
2023/04/04 10:20:05;;;;;;;2.03;1.50;;;6.60;47.10;;;;;;5035094;28;20037;-74
2023/04/04 10:22:32;;;;;;;5.13;2.00;;;6.20;48.40;;;;;;5037593;28;20032;-74
2023/04/04 10:24:58;;;;;;;3.42;1.98;;;5.90;48.90;;;;;;5035217;28;20067;-74
2023/04/04 10:27:24;;;;;;;3.55;1.83;;;6.10;49.30;;;;;;5036121;28;20474;-74
2023/04/04 10:29:51;;;;;;;3.25;1.42;;;6.50;49.00;;;;;;5034724;28;20501;-74
2023/04/04 10:32:24;;;;;;;2.25;1.50;;;7.10;48.80;;;;;;5047430;28;20405;-74
2023/04/04 10:34:55;;;;;;;3.58;1.90;;;7.50;47.60;;;;;;5053686;28;20041;-73
2023/04/04 10:37:26;;;;;;;3.03;2.00;;;7.90;46.40;;;;;;5042256;28;20471;-72
2023/04/04 10:40:05;;;;;;;5.05;2.13;;;8.20;45.90;;;;;;5040520;28;20026;-75
2023/04/04 10:42:38;;;;;;;2.38;2.03;;;8.70;45.30;;;;;;5038967;28;20043;-74
2023/04/04 10:45:07;;;;;;;2.70;1.83;;;8.60;43.90;;;;;;5036555;28;20043;-74
2023/04/04 10:47:34;;;;;;;2.50;1.73;;;8.60;44.10;;;;;;5036619;28;20160;-73
2023/04/04 10:50:01;;;;;;;5.18;2.10;;;8.80;44.50;;;;;;5036690;28;20029;-74
2023/04/04 10:52:30;;;;;;;1.55;1.45;;;8.70;43.00;;;;;;5037254;28;20041;-74
2023/04/04 10:55:03;;;;;;;2.15;1.60;;;8.30;43.70;;;;;;5035879;28;20442;-73
2023/04/04 10:57:29;;;;;;;2.85;1.80;;;8.80;45.30;;;;;;5039525;28;20108;-73
2023/04/04 11:00:10;;;;;;;2.78;1.58;;;9.20;42.90;;;;;;5036972;28;20025;-73
2023/04/04 11:02:53;;;;;;;4.55;1.77;;;9.10;42.90;;;;;;5036563;28;20030;-73
2023/04/04 11:05:49;;;;;;;4.28;2.00;;;8.90;42.40;;;;;;5035534;28;20075;-74
2023/04/04 11:08:24;;;;;;;3.70;1.90;;;8.30;42.80;;;;;;5035135;28;20025;-74
2023/04/04 11:10:54;;;;;;;8.60;2.30;;;7.30;43.90;;;;;;5035992;28;20037;-73
2023/04/04 11:13:31;;;;;;;5.38;2.15;;;6.70;45.20;;;;;;5034748;28;20074;-72
2023/04/04 11:16:03;;;;;;;3.30;1.90;;;6.70;46.60;;;;;;5033706;28;20040;-74
2023/04/04 11:18:39;;;;;;;3.97;2.28;;;6.70;47.00;;;;;;5035750;28;20060;-74
2023/04/04 11:21:09;;;;;;;6.00;2.25;;;6.60;46.50;;;;;;5037241;28;20033;-73
2023/04/04 11:23:47;;;;;;;3.40;2.00;;;6.10;47.40;;;;;;5036196;28;20028;-74
2023/04/04 11:26:13;;;;;;;4.15;2.15;;;5.70;47.90;;;;;;5032994;28;20041;-74
2023/04/04 11:28:39;;;;;;;5.43;2.60;;;5.40;48.70;;;;;;5034608;28;20040;-74
2023/04/04 11:31:17;;;;;;;1.92;1.55;;;5.60;49.60;;;;;;5035288;28;20029;-74
2023/04/04 11:34:01;;;;;;;2.25;1.70;;;6.20;49.40;;;;;;5034938;28;20037;-74
2023/04/04 11:36:36;;;;;;;4.03;1.73;;;6.80;48.40;;;;;;5037985;28;20033;-74
2023/04/04 11:39:14;;;;;;;2.15;1.30;;;7.50;47.40;;;;;;5015577;28;20560;-74
2023/04/04 11:41:55;;;;;;;1.98;1.38;;;7.70;46.80;;;;;;5033830;28;20116;-74
2023/04/04 11:44:23;;;;;;;4.75;1.77;;;8.30;46.00;;;;;;5037043;28;20017;-74
2023/04/04 11:46:55;;;;;;;4.63;2.50;;;8.30;44.10;;;;;;5038868;28;20076;-73
2023/04/04 11:49:27;;;;;;;4.03;1.70;;;7.90;43.80;;;;;;5034439;28;20029;-74
2023/04/04 11:51:53;;;;;;;5.35;1.92;;;7.20;44.40;;;;;;5036680;28;20080;-74
2023/04/04 11:54:19;;;;;;;3.28;1.40;;;7.00;47.00;;;;;;5038856;28;20057;-73
2023/04/04 11:56:45;;;;;;;3.08;1.60;;;7.30;46.90;;;;;;5035615;28;20489;-74
2023/04/04 11:59:11;;;;;;;4.18;2.03;;;7.50;46.30;;;;;;5035123;28;20021;-74
2023/04/04 12:01:40;;;;;;;4.72;2.50;;;7.30;45.30;;;;;;5035899;28;20033;-74
2023/04/04 12:04:06;;;;;;;2.67;1.60;;;7.20;46.30;;;;;;5035491;28;20030;-73
2023/04/04 12:06:34;;;;;;;3.38;2.10;;;7.50;46.30;;;;;;5036874;28;20108;-74
2023/04/04 12:09:02;;;;;;;4.03;2.17;;;7.60;46.00;;;;;;5036795;28;20026;-76
2023/04/04 12:11:29;;;;;;;3.75;2.17;;;7.30;45.60;;;;;;5041236;28;20033;-76
2023/04/04 12:13:56;;;;;;;3.03;2.35;;;7.30;45.60;;;;;;5041513;28;20013;-73
2023/04/04 12:16:22;;;;;;;4.95;2.70;;;7.30;45.60;;;;;;5041915;28;20002;-74
2023/04/04 12:18:48;;;;;;;3.35;2.58;;;7.20;45.60;;;;;;5045883;28;20025;-73
2023/04/04 12:21:14;;;;;;;5.53;2.53;;;6.70;46.50;;;;;;5049402;28;20057;-72
2023/04/04 12:23:40;;;;;;;5.15;2.65;;;6.30;46.90;;;;;;5043320;28;20052;-73
2023/04/04 12:26:08;;;;;;;3.92;1.75;;;6.10;47.80;;;;;;5046366;28;20034;-73
2023/04/04 12:28:36;;;;;;;3.90;2.20;;;6.20;48.40;;;;;;5045543;28;20025;-73
2023/04/04 12:31:05;;;;;;;4.47;1.80;;;6.60;48.60;;;;;;5046702;28;20026;-74
2023/04/04 12:33:35;;;;;;;3.17;1.83;;;7.30;48.40;;;;;;5050400;28;20022;-73
2023/04/04 12:36:02;;;;;;;3.60;2.30;;;7.50;46.70;;;;;;5050820;28;20025;-74
2023/04/04 12:38:30;;;;;;;4.18;2.00;;;7.10;45.90;;;;;;5049454;28;20104;-75
2023/04/04 12:40:56;;;;;;;3.53;1.75;;;6.60;46.50;;;;;;5049847;28;20025;-73
2023/04/04 12:43:25;;;;;;;5.45;1.95;;;6.00;47.60;;;;;;5051382;28;20029;-73
2023/04/04 12:45:53;;;;;;;2.55;1.80;;;6.00;48.70;;;;;;5053875;28;20033;-74
2023/04/04 12:48:26;;;;;;;4.72;2.00;;;6.70;48.80;;;;;;5049207;28;20076;-73
2023/04/04 12:50:53;;;;;;;3.15;1.90;;;7.00;46.90;;;;;;5047638;28;20129;-74
2023/04/04 12:53:23;;;;;;;6.30;2.30;;;6.70;46.20;;;;;;5045996;28;20029;-74